createdAt,value
2022-10-17T00:01:00.984Z,86.57
2022-10-17T00:03:28.689Z,85.88
2022-10-17T00:05:57.876Z,61.55
2022-10-17T00:08:27.689Z,85.93
2022-10-17T00:11:04.225Z,82.35
2022-10-17T00:16:04.453Z,84.07
2022-10-17T00:18:32.943Z,82.35
2022-10-17T00:21:00.695Z,83.90
2022-10-17T00:23:28.764Z,86.75
2022-10-17T00:26:05.908Z,84.60
2022-10-17T00:28:36.705Z,82.93
2022-10-17T00:31:06.241Z,62.45
2022-10-17T00:33:35.422Z,81.95
2022-10-17T00:36:13.701Z,83.45
2022-10-17T00:38:43.053Z,83.18
2022-10-17T00:41:15.008Z,59.92
2022-10-17T00:43:56.030Z,59.05
2022-10-17T00:46:28.453Z,59.28
2022-10-17T00:48:57.396Z,57.17
2022-10-17T00:51:46.498Z,83.40
2022-10-17T00:54:17.216Z,83.85
2022-10-17T00:56:48.223Z,82.55
2022-10-17T00:59:22.703Z,83.05
2022-10-17T01:02:00.871Z,82.82
2022-10-17T01:04:28.490Z,58.65
2022-10-17T01:06:56.206Z,82.95
2022-10-17T01:09:27.496Z,83.38
2022-10-17T01:12:05.054Z,59.42
2022-10-17T01:15:18.998Z,81.05
2022-10-17T01:18:12.077Z,81.80
2022-10-17T01:21:01.193Z,57.70
2022-10-17T01:23:53.613Z,82.93
2022-10-17T01:26:50.942Z,85.53
2022-10-17T01:29:45.918Z,82.40
2022-10-17T01:32:18.954Z,81.60
2022-10-17T01:35:07.027Z,62.83
2022-10-17T01:37:46.857Z,60.17
2022-10-17T01:40:22.969Z,80.68
2022-10-17T01:43:32.378Z,81.30
2022-10-17T01:46:12.705Z,84.97
2022-10-17T01:48:42.939Z,83.88
2022-10-17T01:51:34.057Z,82.10
2022-10-17T01:54:23.987Z,82.45
2022-10-17T01:57:08.302Z,60.42
2022-10-17T01:59:41.305Z,81.82
2022-10-17T02:02:09.728Z,57.15
2022-10-17T02:04:37.707Z,59.28
2022-10-17T02:07:09.935Z,81.32
2022-10-17T02:09:40.644Z,83.07
2022-10-17T02:12:28.595Z,59.05
2022-10-17T02:15:30.122Z,82.13
2022-10-17T02:18:28.008Z,82.28
2022-10-17T02:21:09.921Z,59.60
2022-10-17T02:23:44.530Z,82.47
2022-10-17T02:26:38.348Z,57.65
2022-10-17T02:29:22.646Z,58.78
2022-10-17T02:32:13.383Z,81.65
2022-10-17T02:34:52.502Z,81.37
2022-10-17T02:37:25.546Z,81.63
2022-10-17T02:39:57.017Z,59.08
2022-10-17T02:42:26.389Z,60.17
2022-10-17T02:44:55.214Z,83.03
2022-10-17T02:47:28.882Z,83.78
2022-10-17T02:49:58.655Z,81.15
2022-10-17T02:52:51.040Z,59.67
2022-10-17T02:55:23.429Z,59.35
2022-10-17T02:57:53.530Z,61.15
2022-10-17T03:00:22.804Z,81.72
2022-10-17T03:02:53.752Z,82.25
2022-10-17T03:05:29.557Z,60.00
2022-10-17T03:08:05.918Z,82.90
2022-10-17T03:10:33.406Z,81.57
2022-10-17T03:13:00.839Z,82.82
2022-10-17T03:15:31.862Z,59.67
2022-10-17T03:17:59.878Z,80.60
2022-10-17T03:20:27.300Z,81.40
2022-10-17T03:22:54.710Z,82.78
2022-10-17T03:25:22.564Z,58.35
2022-10-17T03:27:50.096Z,81.22
2022-10-17T03:30:17.447Z,59.90
2022-10-17T03:32:44.882Z,61.42
2022-10-17T03:35:15.253Z,81.65
2022-10-17T03:37:47.020Z,81.72
2022-10-17T03:40:18.752Z,81.85
2022-10-17T03:42:49.202Z,82.60
2022-10-17T03:45:17.061Z,81.97
2022-10-17T03:47:46.085Z,62.47
2022-10-17T03:50:13.668Z,58.97
2022-10-17T03:52:48.677Z,82.13
2022-10-17T03:57:45.590Z,81.75
2022-10-17T04:00:15.421Z,82.95
2022-10-17T04:02:44.977Z,81.97
2022-10-17T04:05:18.738Z,81.50
2022-10-17T04:07:47.794Z,81.18
2022-10-17T04:10:17.496Z,84.47
2022-10-17T04:12:44.973Z,82.53
2022-10-17T04:15:12.979Z,55.83
2022-10-17T04:17:40.850Z,82.95
2022-10-17T04:20:08.818Z,83.57
2022-10-17T04:22:36.277Z,60.35
2022-10-17T04:25:04.551Z,58.38
2022-10-17T04:27:36.800Z,62.45
2022-10-17T04:30:05.771Z,62.88
2022-10-17T04:32:38.780Z,64.05
2022-10-17T04:35:13.831Z,64.82
2022-10-17T04:37:46.573Z,62.47
2022-10-17T04:40:18.730Z,85.38
2022-10-17T04:42:47.219Z,85.85
2022-10-17T04:45:18.807Z,86.85
2022-10-17T04:47:48.745Z,60.88
2022-10-17T04:50:16.128Z,62.80
2022-10-17T04:52:52.614Z,67.95
2022-10-17T04:55:22.434Z,84.38
2022-10-17T04:57:49.717Z,62.85
2022-10-17T05:00:21.491Z,85.70
2022-10-17T05:02:49.213Z,83.90
2022-10-17T05:05:16.712Z,62.65
2022-10-17T05:07:46.517Z,86.13
2022-10-17T05:10:18.741Z,61.78
2022-10-17T05:12:49.752Z,88.97
2022-10-17T05:15:19.330Z,86.00
2022-10-17T05:17:46.755Z,85.35
2022-10-17T05:20:14.453Z,81.70
2022-10-17T05:22:42.454Z,82.20
2022-10-17T05:25:11.844Z,62.58
2022-10-17T05:27:39.233Z,62.80
2022-10-17T05:30:08.224Z,85.45
2022-10-17T05:32:37.072Z,87.22
2022-10-17T05:35:05.127Z,82.65
2022-10-17T05:37:33.435Z,64.38
2022-10-17T05:40:03.385Z,60.17
2022-10-17T05:42:33.029Z,84.43
2022-10-17T05:45:03.001Z,85.28
2022-10-17T05:47:31.556Z,66.45
2022-10-17T05:49:59.460Z,82.97
2022-10-17T05:52:33.441Z,84.55
2022-10-17T05:55:27.153Z,40.58
2022-10-17T05:57:54.628Z,83.47
2022-10-17T06:00:23.961Z,84.25
2022-10-17T06:02:58.653Z,84.85
2022-10-17T06:05:28.387Z,89.95
2022-10-17T06:07:59.619Z,85.13
2022-10-17T06:10:31.093Z,86.20
2022-10-17T06:12:59.207Z,82.25
2022-10-17T06:15:26.906Z,87.30
2022-10-17T06:18:06.114Z,84.57
2022-10-17T06:20:37.227Z,83.50
2022-10-17T06:23:05.252Z,61.22
2022-10-17T06:25:48.268Z,23.27
2022-10-17T06:28:15.748Z,62.75
2022-10-17T06:30:46.436Z,82.93
2022-10-17T06:33:16.888Z,82.97
2022-10-17T06:35:57.159Z,64.72
2022-10-17T06:38:25.884Z,64.35
2022-10-17T06:41:08.053Z,84.30
2022-10-17T06:43:39.742Z,84.55
2022-10-17T06:46:26.972Z,83.13
2022-10-17T06:48:59.429Z,59.85
2022-10-17T06:51:40.517Z,61.08
2022-10-17T06:54:10.647Z,82.13
2022-10-17T06:57:06.324Z,83.47
2022-10-17T07:00:00.939Z,83.35
2022-10-17T07:02:37.165Z,83.25
2022-10-17T07:05:06.002Z,83.80
2022-10-17T07:07:44.125Z,84.78
2022-10-17T07:10:16.006Z,61.38
2022-10-17T07:12:45.923Z,84.05
2022-10-17T07:15:16.416Z,85.07
2022-10-17T07:17:43.770Z,84.03
2022-10-17T07:20:11.411Z,84.15
2022-10-17T07:22:39.374Z,83.25
2022-10-17T07:25:08.377Z,83.50
2022-10-17T07:27:52.162Z,59.50
2022-10-17T07:33:08.727Z,59.10
2022-10-17T07:35:38.531Z,61.10
2022-10-17T07:38:06.129Z,83.32
2022-10-17T07:40:33.941Z,63.45
2022-10-17T07:43:01.667Z,83.53
2022-10-17T07:45:30.341Z,84.25
2022-10-17T07:47:59.856Z,83.18
2022-10-17T07:50:27.360Z,60.28
2022-10-17T07:52:54.701Z,64.50
2022-10-17T07:55:22.079Z,85.28
2022-10-17T07:57:49.447Z,85.07
2022-10-17T08:00:16.959Z,83.32
2022-10-17T08:02:44.260Z,85.15
2022-10-17T08:05:11.974Z,37.58
2022-10-17T08:07:41.494Z,83.82
2022-10-17T08:10:10.736Z,60.20
2022-10-17T08:12:39.088Z,82.75
2022-10-17T08:15:13.076Z,85.82
2022-10-17T08:17:40.471Z,62.50
2022-10-17T08:20:08.024Z,84.18
2022-10-17T08:22:35.410Z,84.65
2022-10-17T08:25:02.706Z,61.65
2022-10-17T08:27:30.047Z,84.78
2022-10-17T08:30:00.392Z,88.38
2022-10-17T08:32:29.765Z,86.72
2022-10-17T08:34:57.253Z,84.88
2022-10-17T08:37:25.352Z,84.68
2022-10-17T08:39:52.691Z,87.50
2022-10-17T08:42:55.239Z,86.20
2022-10-17T08:45:30.247Z,88.75
2022-10-17T08:48:09.707Z,88.20
2022-10-17T08:50:51.522Z,89.47
2022-10-17T08:54:00.695Z,91.43
2022-10-17T08:56:48.107Z,91.82
2022-10-17T08:59:28.510Z,68.43
2022-10-17T09:02:20.013Z,94.50
2022-10-17T09:05:23.974Z,97.45
2022-10-17T09:08:40.910Z,100.38
2022-10-17T09:11:44.145Z,93.40
2022-10-17T09:14:44.948Z,92.97
2022-10-17T09:17:28.360Z,94.20
2022-10-17T09:20:20.271Z,93.75
2022-10-17T09:23:04.359Z,95.28
2022-10-17T09:25:43.085Z,94.90
2022-10-17T09:28:18.153Z,90.75
2022-10-17T09:30:54.379Z,95.32
2022-10-17T09:33:35.420Z,95.85
2022-10-17T09:36:16.151Z,95.13
2022-10-17T09:38:50.735Z,94.53
2022-10-17T09:41:46.791Z,98.97
2022-10-17T09:44:16.764Z,72.30
2022-10-17T09:47:07.544Z,96.55
2022-10-17T09:49:40.210Z,90.18
2022-10-17T09:52:47.666Z,90.85
2022-10-17T09:55:45.321Z,93.15
2022-10-17T09:58:13.019Z,68.95
2022-10-17T10:00:45.606Z,95.10
2022-10-17T10:03:26.606Z,63.42
2022-10-17T10:06:13.524Z,92.88
2022-10-17T10:08:54.103Z,71.88
2022-10-17T10:11:46.387Z,98.97
2022-10-17T10:14:22.571Z,91.38
2022-10-17T10:16:55.455Z,94.25
2022-10-17T10:19:36.740Z,95.22
2022-10-17T10:22:16.477Z,100.32
2022-10-17T10:24:44.159Z,98.40
2022-10-17T10:27:17.684Z,103.18
2022-10-17T10:29:55.364Z,107.07
2022-10-17T10:32:32.260Z,71.22
2022-10-17T10:35:08.904Z,96.10
2022-10-17T10:37:36.238Z,98.18
2022-10-17T10:40:06.394Z,96.82
2022-10-17T10:42:36.799Z,79.88
2022-10-17T10:45:46.933Z,56.08
2022-10-17T10:48:23.435Z,108.45
2022-10-17T10:51:08.307Z,44.17
2022-10-17T10:53:53.583Z,44.67
2022-10-17T10:56:41.714Z,44.00
2022-10-17T10:59:09.072Z,33.28
2022-10-17T11:01:45.675Z,36.17
2022-10-17T11:04:46.418Z,33.50
2022-10-17T11:07:25.497Z,35.88
2022-10-17T11:10:14.229Z,36.42
2022-10-17T11:12:51.055Z,35.75
2022-10-17T11:15:37.431Z,36.35
2022-10-17T11:18:12.214Z,36.40
2022-10-17T11:20:48.795Z,37.67
2022-10-17T11:23:28.398Z,35.97
2022-10-17T11:25:59.253Z,34.53
2022-10-17T11:28:26.906Z,32.78
2022-10-17T11:31:08.021Z,32.85
2022-10-17T11:33:47.456Z,33.78
2022-10-17T11:36:18.170Z,33.97
2022-10-17T11:38:50.527Z,35.53
2022-10-17T11:41:35.327Z,35.35
2022-10-17T13:51:53.089Z,32.00
2022-10-17T13:57:29.839Z,26.92
2022-10-17T15:54:24.665Z,34.95
2022-10-17T15:56:56.254Z,42.53
2022-10-17T15:59:30.548Z,43.10
2022-10-17T16:01:58.270Z,40.88
2022-10-17T16:04:29.995Z,41.03
2022-10-17T16:06:57.482Z,42.38
2022-10-17T16:09:24.815Z,42.92
2022-10-17T16:11:54.880Z,42.75
2022-10-17T16:14:22.659Z,42.65
2022-10-17T16:16:53.445Z,42.22
2022-10-17T16:19:21.875Z,41.65
2022-10-17T16:21:49.291Z,42.13
2022-10-17T16:24:20.178Z,41.67
2022-10-17T16:26:47.679Z,16.20
2022-10-17T16:29:14.984Z,21.92
2022-10-17T16:31:44.861Z,41.33
2022-10-17T16:34:14.346Z,43.88
2022-10-17T16:36:42.613Z,42.90
2022-10-17T16:39:12.563Z,43.70
2022-10-17T16:41:40.163Z,43.58
2022-10-17T16:44:13.210Z,42.97
2022-10-17T16:46:42.498Z,43.25
2022-10-17T16:49:30.944Z,43.30
2022-10-17T16:51:58.261Z,41.65
2022-10-17T16:54:25.571Z,43.30
2022-10-17T16:56:53.087Z,27.42
2022-10-17T16:59:20.609Z,18.33
2022-10-17T17:01:48.426Z,64.82
2022-10-17T17:04:15.877Z,33.72
2022-10-17T17:09:10.750Z,42.10
2022-10-17T17:11:42.112Z,40.40
2022-10-17T17:14:10.440Z,42.05
2022-10-17T17:16:37.757Z,42.78
2022-10-17T17:19:08.136Z,41.47
2022-10-17T17:21:36.019Z,41.97
2022-10-17T17:24:04.631Z,39.63
2022-10-17T17:26:36.210Z,41.65
2022-10-17T17:29:06.083Z,43.13
2022-10-17T17:31:34.935Z,42.55
2022-10-17T17:34:03.554Z,42.17
2022-10-17T17:36:33.827Z,42.03
2022-10-17T17:39:04.347Z,37.15
2022-10-17T17:41:32.307Z,29.73
2022-10-17T17:44:03.546Z,44.50
2022-10-17T17:46:31.303Z,40.35
2022-10-17T17:48:58.964Z,45.47
2022-10-17T17:51:29.390Z,37.08
2022-10-17T17:53:59.370Z,40.85
2022-10-17T17:56:28.726Z,36.05
2022-10-17T17:58:58.477Z,25.13
2022-10-17T18:01:28.485Z,15.02
2022-10-17T18:03:59.088Z,25.40
2022-10-17T18:06:29.175Z,15.73
2022-10-17T18:09:01.572Z,12.60
2022-10-17T18:11:32.089Z,5.05
2022-10-17T18:14:05.997Z,5.32
2022-10-17T18:16:35.136Z,4.43
2022-10-17T18:19:13.278Z,6.25
2022-10-17T18:21:44.450Z,6.82
2022-10-17T18:24:12.828Z,4.43
2022-10-17T18:26:40.076Z,4.40
2022-10-17T18:29:07.539Z,7.15
2022-10-17T18:31:38.511Z,7.25
2022-10-17T18:34:06.532Z,3.60
2022-10-17T18:36:35.467Z,4.13
2022-10-17T18:39:04.189Z,6.93
2022-10-17T18:41:32.236Z,7.15
2022-10-17T18:43:59.841Z,6.55
2022-10-17T18:46:34.962Z,7.47
2022-10-17T18:49:02.774Z,6.30
2022-10-17T18:51:30.015Z,6.35
2022-10-17T18:54:04.153Z,7.40
2022-10-17T18:56:33.108Z,8.30
2022-10-17T18:59:00.496Z,8.27
2022-10-17T19:01:28.654Z,8.93
2022-10-17T19:03:59.228Z,35.72
2022-10-17T19:06:31.734Z,31.63
2022-10-17T19:09:03.669Z,5.77
2022-10-17T19:11:32.926Z,4.55
2022-10-17T19:14:03.518Z,4.93
2022-10-17T19:16:37.151Z,4.50
2022-10-17T19:19:12.057Z,4.28
2022-10-17T19:21:39.946Z,4.63
2022-10-17T19:24:17.165Z,4.70
2022-10-17T19:26:46.779Z,4.90
2022-10-17T19:29:20.908Z,4.85
2022-10-17T19:31:51.406Z,4.40
2022-10-17T19:34:18.880Z,4.28
2022-10-17T19:36:46.534Z,4.28
2022-10-17T19:39:23.063Z,5.60
2022-10-17T19:41:50.401Z,5.32
2022-10-17T19:44:17.988Z,3.55
2022-10-17T19:46:47.049Z,3.95
2022-10-17T19:49:15.189Z,3.22
2022-10-17T19:51:42.537Z,3.03
2022-10-17T19:54:12.492Z,4.63
2022-10-17T19:56:40.668Z,3.15
2022-10-17T19:59:13.262Z,3.70
2022-10-17T20:01:41.127Z,4.68
2022-10-17T20:04:11.131Z,4.50
2022-10-17T20:06:39.274Z,3.70
2022-10-17T20:09:09.790Z,4.82
2022-10-17T20:11:42.825Z,37.13
2022-10-17T20:14:19.231Z,39.17
2022-10-17T20:16:50.447Z,39.38
2022-10-17T20:19:17.810Z,38.85
2022-10-17T20:21:45.095Z,39.45
2022-10-17T20:24:15.588Z,36.53
2022-10-17T20:26:45.694Z,2.95
2022-10-17T20:29:17.359Z,3.70
2022-10-17T20:31:49.155Z,3.92
2022-10-17T20:34:18.616Z,4.53
2022-10-17T20:36:46.711Z,4.45
2022-10-17T20:39:17.037Z,4.45
2022-10-17T20:41:45.071Z,4.32
2022-10-17T20:44:13.595Z,4.00
2022-10-17T20:47:00.837Z,4.22
2022-10-17T20:49:33.549Z,3.45
2022-10-17T20:52:01.498Z,5.18
2022-10-17T20:54:31.774Z,5.45
2022-10-17T20:57:02.442Z,5.15
2022-10-17T20:59:32.726Z,5.90
2022-10-17T21:02:04.448Z,7.82
2022-10-17T21:04:47.911Z,6.55
2022-10-17T21:07:16.238Z,6.95
2022-10-17T21:09:43.718Z,8.38
2022-10-17T21:12:11.028Z,7.53
2022-10-17T21:14:40.549Z,7.97
2022-10-17T21:17:09.192Z,8.60
2022-10-17T21:19:36.435Z,9.15
2022-10-17T21:22:03.752Z,9.68
2022-10-17T21:24:33.588Z,8.32
2022-10-17T21:27:03.097Z,9.18
2022-10-17T21:29:30.758Z,8.35
2022-10-17T21:31:58.263Z,8.85
2022-10-17T21:34:25.638Z,7.60
2022-10-17T21:36:54.035Z,8.57
2022-10-17T21:39:24.297Z,8.23
2022-10-17T21:41:52.716Z,9.02
2022-10-17T21:44:25.507Z,8.10
2022-10-17T21:46:54.042Z,9.20
2022-10-17T21:49:23.297Z,9.95
2022-10-17T21:51:51.996Z,8.30
2022-10-17T21:54:20.656Z,8.32
2022-10-17T21:56:50.842Z,7.65
2022-10-17T21:59:18.216Z,8.73
2022-10-17T22:01:46.657Z,8.05
2022-10-17T22:04:16.897Z,8.00
2022-10-17T22:06:46.029Z,8.57
2022-10-17T22:09:21.289Z,8.10
2022-10-17T22:11:52.155Z,7.85
2022-10-17T22:14:21.343Z,8.57
2022-10-17T22:16:49.995Z,7.70
2022-10-17T22:19:20.812Z,8.00
2022-10-17T22:21:48.247Z,7.93
2022-10-17T22:24:17.542Z,8.40
2022-10-17T22:26:45.557Z,9.90
2022-10-17T22:29:13.349Z,8.20
2022-10-17T22:31:40.969Z,8.80
2022-10-17T22:34:08.691Z,9.30
2022-10-17T22:36:36.296Z,9.43
2022-10-17T22:39:04.598Z,8.68
2022-10-17T22:41:32.044Z,8.52
2022-10-17T22:43:59.309Z,8.98
2022-10-17T22:46:26.898Z,7.35
2022-10-17T22:48:54.212Z,8.48
2022-10-17T22:51:21.709Z,8.18
2022-10-17T22:53:48.991Z,8.52
2022-10-17T22:56:19.598Z,8.35
2022-10-17T22:58:47.983Z,8.20
2022-10-17T23:01:20.955Z,7.25
2022-10-17T23:03:48.551Z,7.20
2022-10-17T23:06:16.586Z,7.20
2022-10-17T23:08:44.264Z,7.95
2022-10-17T23:11:12.483Z,7.75
2022-10-17T23:13:41.073Z,7.60
2022-10-17T23:16:09.214Z,7.82
2022-10-17T23:18:37.938Z,7.15
2022-10-17T23:21:06.849Z,8.75
2022-10-17T23:23:34.655Z,9.15
2022-10-17T23:26:10.624Z,8.90
2022-10-17T23:28:38.285Z,7.57
2022-10-17T23:31:19.366Z,8.85
2022-10-17T23:33:48.003Z,8.18
2022-10-17T23:36:17.801Z,7.90
2022-10-17T23:38:46.936Z,9.00
2022-10-17T23:41:15.152Z,8.10
2022-10-17T23:43:43.327Z,8.68
2022-10-17T23:46:11.048Z,7.55
2022-10-17T23:48:39.433Z,9.73
2022-10-17T23:51:08.870Z,7.97
2022-10-17T23:53:40.068Z,8.45
2022-10-17T23:56:08.730Z,8.20
2022-10-17T23:58:36.488Z,9.50
